createdAt,value
2023-01-25T00:01:06.440Z,16.15
2023-01-25T00:03:07.978Z,16.35
2023-01-25T00:05:09.860Z,14.23
2023-01-25T00:07:11.485Z,17.55
2023-01-25T00:09:13.833Z,17.65
2023-01-25T00:11:17.080Z,15.63
2023-01-25T00:13:18.561Z,15.63
2023-01-25T00:15:20.026Z,12.30
2023-01-25T00:17:21.500Z,12.82
2023-01-25T00:19:23.999Z,13.35
2023-01-25T00:21:27.869Z,15.00
2023-01-25T00:23:29.324Z,15.05
2023-01-25T00:25:30.842Z,15.18
2023-01-25T00:27:32.363Z,17.00
2023-01-25T00:29:33.854Z,16.60
2023-01-25T00:31:35.378Z,17.20
2023-01-25T00:33:43.838Z,18.05
2023-01-25T00:35:45.394Z,16.38
2023-01-25T00:37:49.830Z,15.07
2023-01-25T00:39:52.255Z,15.27
2023-01-25T00:41:54.378Z,17.30
2023-01-25T00:43:56.283Z,16.27
2023-01-25T00:46:01.727Z,14.48
2023-01-25T00:48:03.441Z,16.50
2023-01-25T00:50:07.208Z,16.15
2023-01-25T00:52:09.587Z,15.90
2023-01-25T00:54:11.083Z,17.05
2023-01-25T00:56:12.534Z,15.63
2023-01-25T00:58:14.007Z,17.42
2023-01-25T01:00:15.898Z,17.45
2023-01-25T01:02:17.376Z,19.00
2023-01-25T01:04:20.258Z,22.45
2023-01-25T01:06:21.743Z,19.80
2023-01-25T01:08:23.221Z,20.00
2023-01-25T01:10:24.691Z,21.08
2023-01-25T01:12:26.213Z,17.30
2023-01-25T01:14:27.795Z,15.13
2023-01-25T01:16:29.594Z,16.70
2023-01-25T01:18:36.241Z,16.42
2023-01-25T01:20:37.721Z,16.60
2023-01-25T01:22:39.183Z,17.42
2023-01-25T01:24:40.639Z,16.42
2023-01-25T01:26:42.100Z,17.13
2023-01-25T01:28:43.634Z,14.85
2023-01-25T01:30:45.179Z,14.60
2023-01-25T01:32:46.728Z,15.05
2023-01-25T01:34:48.271Z,18.10
2023-01-25T01:36:49.831Z,16.58
2023-01-25T01:38:51.511Z,22.15
2023-01-25T01:40:52.957Z,18.73
2023-01-25T01:43:05.213Z,18.25
2023-01-25T01:45:44.210Z,20.48
2023-01-25T01:47:48.707Z,19.48
2023-01-25T01:49:54.934Z,19.45
2023-01-25T01:52:05.011Z,17.65
2023-01-25T01:54:53.832Z,17.98
2023-01-25T01:57:00.267Z,17.60
2023-01-25T01:59:04.033Z,16.67
2023-01-25T02:01:05.903Z,19.48
2023-01-25T02:03:09.545Z,22.08
2023-01-25T02:05:27.241Z,18.80
2023-01-25T02:07:36.997Z,18.10
2023-01-25T02:09:38.583Z,20.73
2023-01-25T02:11:40.703Z,20.73
2023-01-25T02:13:42.233Z,23.50
2023-01-25T02:15:47.284Z,20.83
2023-01-25T02:17:50.092Z,20.40
2023-01-25T02:19:58.430Z,21.38
2023-01-25T02:22:07.604Z,21.63
2023-01-25T02:24:20.486Z,19.67
2023-01-25T02:26:22.797Z,21.23
2023-01-25T02:28:39.229Z,19.08
2023-01-25T02:30:42.771Z,18.85
2023-01-25T02:32:44.756Z,20.80
2023-01-25T02:34:46.216Z,20.10
2023-01-25T02:36:47.692Z,23.70
2023-01-25T02:38:56.128Z,20.23
2023-01-25T02:41:11.657Z,20.70
2023-01-25T02:43:14.937Z,25.98
2023-01-25T02:45:19.507Z,21.80
2023-01-25T02:47:21.108Z,21.42
2023-01-25T02:49:22.584Z,23.55
2023-01-25T02:51:26.164Z,22.02
2023-01-25T02:53:27.639Z,23.33
2023-01-25T02:55:29.118Z,22.52
2023-01-25T02:57:30.575Z,22.20
2023-01-25T02:59:32.057Z,24.90
2023-01-25T03:01:38.006Z,25.83
2023-01-25T03:03:40.108Z,22.92
2023-01-25T03:05:41.622Z,24.10
2023-01-25T03:07:43.117Z,24.63
2023-01-25T03:09:44.606Z,25.55
2023-01-25T03:11:46.050Z,24.48
2023-01-25T03:13:47.590Z,30.30
2023-01-25T03:15:49.124Z,25.80
2023-01-25T03:17:50.666Z,25.08
2023-01-25T03:19:53.981Z,28.73
2023-01-25T03:21:55.493Z,26.35
2023-01-25T03:24:00.048Z,29.13
2023-01-25T03:26:22.302Z,30.38
2023-01-25T03:28:23.750Z,30.02
2023-01-25T03:30:25.232Z,32.90
2023-01-25T03:32:26.744Z,28.88
2023-01-25T03:34:28.292Z,31.33
2023-01-25T03:36:29.863Z,35.58
2023-01-25T03:38:31.601Z,32.90
2023-01-25T03:40:33.065Z,30.27
2023-01-25T03:42:34.651Z,25.40
2023-01-25T03:44:36.138Z,27.45
2023-01-25T03:46:38.654Z,28.92
2023-01-25T03:48:40.166Z,30.98
2023-01-25T03:50:41.613Z,33.15
2023-01-25T03:52:45.485Z,30.75
2023-01-25T03:54:46.943Z,28.40
2023-01-25T03:56:48.443Z,28.75
2023-01-25T03:58:49.897Z,26.95
2023-01-25T04:00:51.782Z,29.63
2023-01-25T04:02:53.270Z,31.40
2023-01-25T04:04:54.964Z,27.35
2023-01-25T04:06:56.448Z,30.10
2023-01-25T04:08:57.919Z,27.98
2023-01-25T04:11:04.828Z,30.52
2023-01-25T04:13:06.717Z,28.13
2023-01-25T04:15:09.385Z,26.92
2023-01-25T04:17:11.110Z,26.65
2023-01-25T04:19:12.564Z,29.42
2023-01-25T04:21:14.043Z,28.83
2023-01-25T04:23:15.530Z,28.52
2023-01-25T04:25:17.029Z,27.60
2023-01-25T04:27:18.499Z,31.73
2023-01-25T04:29:26.180Z,28.05
2023-01-25T04:31:36.928Z,29.58
2023-01-25T04:33:38.557Z,30.50
2023-01-25T04:35:40.065Z,29.20
2023-01-25T04:37:41.593Z,30.83
2023-01-25T04:39:43.076Z,30.65
2023-01-25T04:41:44.796Z,29.33
2023-01-25T04:43:46.357Z,35.85
2023-01-25T04:45:47.998Z,33.28
2023-01-25T04:47:50.369Z,32.05
2023-01-25T04:49:51.798Z,31.50
2023-01-25T04:51:53.408Z,31.10
2023-01-25T04:53:54.914Z,33.60
2023-01-25T04:55:56.402Z,33.75
2023-01-25T04:57:57.880Z,33.88
2023-01-25T04:59:59.327Z,36.53
2023-01-25T05:02:00.879Z,32.20
2023-01-25T05:04:02.492Z,33.55
2023-01-25T05:06:04.114Z,33.58
2023-01-25T05:08:05.830Z,34.75
2023-01-25T05:10:08.487Z,32.72
2023-01-25T05:12:13.608Z,37.00
2023-01-25T05:14:15.156Z,35.20
2023-01-25T05:16:16.667Z,34.20
2023-01-25T05:18:18.137Z,36.65
2023-01-25T05:20:19.660Z,39.15
2023-01-25T05:22:21.304Z,39.00
2023-01-25T05:24:22.963Z,37.70
2023-01-25T05:26:43.075Z,37.03
2023-01-25T05:28:44.528Z,39.22
2023-01-25T05:30:46.074Z,43.63
2023-01-25T05:32:49.743Z,36.38
2023-01-25T05:34:51.388Z,37.75
2023-01-25T05:36:53.318Z,38.53
2023-01-25T05:38:54.793Z,43.00
2023-01-25T05:40:58.612Z,37.97
2023-01-25T05:43:00.225Z,37.70
2023-01-25T05:45:01.685Z,38.13
2023-01-25T05:47:03.179Z,36.67
2023-01-25T05:49:04.898Z,36.83
2023-01-25T05:51:06.782Z,37.05
2023-01-25T05:53:08.237Z,38.28
2023-01-25T05:55:10.490Z,37.50
2023-01-25T05:57:14.216Z,37.88
2023-01-25T05:59:17.310Z,35.85
2023-01-25T06:01:18.821Z,35.60
2023-01-25T06:03:20.466Z,38.78
2023-01-25T06:05:22.051Z,36.80
2023-01-25T06:07:24.783Z,36.15
2023-01-25T06:09:27.081Z,34.75
2023-01-25T06:11:28.719Z,35.25
2023-01-25T06:13:30.201Z,33.97
2023-01-25T06:15:31.701Z,35.22
2023-01-25T06:17:33.207Z,30.35
2023-01-25T06:19:34.679Z,33.55
2023-01-25T06:21:38.936Z,36.22
2023-01-25T06:23:40.678Z,31.17
2023-01-25T06:25:42.423Z,33.65
2023-01-25T06:27:44.042Z,32.97
2023-01-25T06:29:45.573Z,34.17
2023-01-25T06:31:47.010Z,35.70
2023-01-25T06:33:52.661Z,33.03
2023-01-25T06:35:54.109Z,36.45
2023-01-25T06:37:56.758Z,33.83
2023-01-25T06:39:58.261Z,38.17
2023-01-25T06:41:59.721Z,37.03
2023-01-25T06:44:01.406Z,35.42
2023-01-25T06:46:08.430Z,34.65
2023-01-25T06:48:11.629Z,34.47
2023-01-25T06:50:14.905Z,36.33
2023-01-25T06:52:16.454Z,35.13
2023-01-25T06:54:17.889Z,37.17
2023-01-25T06:56:22.118Z,35.78
2023-01-25T06:58:23.597Z,38.78
2023-01-25T07:00:25.248Z,35.58
2023-01-25T07:02:27.088Z,35.25
2023-01-25T07:04:28.591Z,39.95
2023-01-25T07:06:34.120Z,37.92
2023-01-25T07:08:36.791Z,36.13
2023-01-25T07:10:38.325Z,36.78
2023-01-25T07:12:39.790Z,38.92
2023-01-25T07:14:41.262Z,36.28
2023-01-25T07:16:42.703Z,35.75
2023-01-25T07:18:44.496Z,40.13
2023-01-25T07:20:46.010Z,35.47
2023-01-25T07:22:47.458Z,34.83
2023-01-25T07:24:52.165Z,41.30
2023-01-25T07:26:53.706Z,38.22
2023-01-25T07:28:56.933Z,38.58
2023-01-25T07:31:08.276Z,43.58
2023-01-25T07:33:10.975Z,43.60
2023-01-25T07:35:12.406Z,43.90
2023-01-25T07:37:13.908Z,43.53
2023-01-25T07:39:15.472Z,41.88
2023-01-25T07:41:17.148Z,45.25
2023-01-25T07:43:19.761Z,42.17
2023-01-25T07:45:21.639Z,45.88
2023-01-25T07:47:23.186Z,44.63
2023-01-25T07:49:24.755Z,45.67
2023-01-25T07:51:30.825Z,44.97
2023-01-25T07:53:32.265Z,42.60
2023-01-25T07:55:34.347Z,43.72
2023-01-25T07:57:35.792Z,40.90
2023-01-25T07:59:37.224Z,42.28
2023-01-25T08:01:39.520Z,43.15
2023-01-25T08:03:41.501Z,46.38
2023-01-25T08:05:46.077Z,41.60
2023-01-25T08:07:48.335Z,43.17
2023-01-25T08:09:49.831Z,45.47
2023-01-25T08:11:53.460Z,52.35
2023-01-25T08:13:55.845Z,49.17
2023-01-25T08:15:57.365Z,45.63
2023-01-25T08:18:02.376Z,44.90
2023-01-25T08:20:04.975Z,49.45
2023-01-25T08:22:08.141Z,45.22
2023-01-25T08:24:09.858Z,43.03
2023-01-25T08:26:13.917Z,42.50
2023-01-25T08:28:15.419Z,40.63
2023-01-25T08:30:17.341Z,40.25
2023-01-25T08:32:18.776Z,43.28
2023-01-25T08:34:20.606Z,42.78
2023-01-25T08:36:24.343Z,42.78
2023-01-25T08:38:25.888Z,43.97
2023-01-25T08:40:27.326Z,44.17
2023-01-25T08:42:28.883Z,38.13
2023-01-25T08:44:30.311Z,38.78
2023-01-25T08:46:33.927Z,42.10
2023-01-25T08:48:35.783Z,40.35
2023-01-25T08:50:37.216Z,40.42
2023-01-25T08:52:38.815Z,35.95
2023-01-25T08:54:43.986Z,38.47
2023-01-25T08:56:45.510Z,34.38
2023-01-25T08:58:48.817Z,36.45
2023-01-25T09:00:50.328Z,37.10
2023-01-25T09:02:51.826Z,34.72
2023-01-25T09:04:53.296Z,35.63
2023-01-25T09:06:55.959Z,33.03
2023-01-25T09:08:59.299Z,38.17
2023-01-25T09:11:02.463Z,32.20
2023-01-25T09:13:03.961Z,32.80
2023-01-25T09:15:05.897Z,32.75
2023-01-25T09:17:07.352Z,33.22
2023-01-25T09:19:09.867Z,34.60
2023-01-25T09:21:17.319Z,32.78
2023-01-25T09:23:22.753Z,30.63
2023-01-25T09:25:26.596Z,35.13
2023-01-25T09:27:28.033Z,34.88
2023-01-25T09:29:29.506Z,30.20
2023-01-25T09:31:31.247Z,33.08
2023-01-25T09:33:35.321Z,29.27
2023-01-25T09:35:37.342Z,30.52
2023-01-25T09:37:40.213Z,30.80
2023-01-25T09:39:41.681Z,32.38
2023-01-25T09:42:21.535Z,31.63
2023-01-25T09:44:23.052Z,31.67
2023-01-25T09:46:40.917Z,29.25
2023-01-25T09:49:06.796Z,25.88
2023-01-25T09:51:26.904Z,32.45
2023-01-25T09:53:34.568Z,30.98
2023-01-25T09:55:36.657Z,36.92
2023-01-25T09:57:39.806Z,35.53
2023-01-25T09:59:42.052Z,36.15
2023-01-25T10:02:02.939Z,37.38
2023-01-25T10:04:13.067Z,38.05
2023-01-25T10:06:16.937Z,33.50
2023-01-25T10:08:31.488Z,38.70
2023-01-25T10:10:37.252Z,38.40
2023-01-25T10:12:39.492Z,38.55
2023-01-25T10:14:41.012Z,37.67
2023-01-25T10:16:48.211Z,38.17
2023-01-25T10:19:15.997Z,41.17
2023-01-25T10:21:24.680Z,37.35
2023-01-25T10:23:44.365Z,40.55
2023-01-25T10:25:51.690Z,45.00
2023-01-25T10:28:08.972Z,43.70
2023-01-25T10:30:36.123Z,45.38
2023-01-25T10:32:47.608Z,44.20
2023-01-25T10:34:57.587Z,46.17
2023-01-25T10:37:14.363Z,44.20
2023-01-25T10:39:18.288Z,42.65
2023-01-25T10:41:27.198Z,40.15
2023-01-25T10:43:28.931Z,43.08
2023-01-25T10:45:30.454Z,42.28
2023-01-25T10:47:35.473Z,39.88
2023-01-25T10:49:52.711Z,38.90
2023-01-25T10:51:54.437Z,42.92
2023-01-25T10:54:01.840Z,37.50
2023-01-25T10:56:19.325Z,39.50
2023-01-25T10:58:41.810Z,42.00
2023-01-25T11:00:43.295Z,38.58
2023-01-25T11:02:47.426Z,37.05
2023-01-25T11:04:48.980Z,34.28
2023-01-25T11:06:51.523Z,37.90
2023-01-25T11:08:53.085Z,38.75
2023-01-25T11:10:55.363Z,38.20
2023-01-25T11:13:15.068Z,35.63
2023-01-25T11:15:25.854Z,35.83
2023-01-25T11:17:31.859Z,37.75
2023-01-25T11:19:39.047Z,35.33
2023-01-25T11:21:52.964Z,36.22
2023-01-25T11:23:58.877Z,42.28
2023-01-25T11:26:26.726Z,37.17
2023-01-25T11:28:28.206Z,41.58
2023-01-25T11:30:29.871Z,37.38
2023-01-25T11:32:31.878Z,39.92
2023-01-25T11:34:33.391Z,38.65
2023-01-25T11:36:43.860Z,39.28
2023-01-25T11:39:00.365Z,38.78
2023-01-25T11:41:10.884Z,39.75
2023-01-25T11:43:39.703Z,39.65
2023-01-25T11:45:49.985Z,38.55
2023-01-25T11:48:25.415Z,38.85
2023-01-25T11:50:34.018Z,41.35
2023-01-25T11:54:46.593Z,39.45
2023-01-25T11:56:59.592Z,37.60
2023-01-25T11:59:09.736Z,43.75
2023-01-25T12:01:13.814Z,36.58
2023-01-25T12:03:56.949Z,41.45
2023-01-25T12:06:13.554Z,41.97
2023-01-25T12:08:44.391Z,39.20
2023-01-25T12:11:00.168Z,38.60
2023-01-25T12:13:27.005Z,38.25
2023-01-25T12:15:50.291Z,44.80
2023-01-25T12:18:16.721Z,47.10
2023-01-25T12:20:43.066Z,42.40
2023-01-25T12:23:22.073Z,42.67
2023-01-25T12:25:40.976Z,42.10
2023-01-25T12:27:45.164Z,39.50
2023-01-25T12:30:30.096Z,39.33
2023-01-25T12:32:39.767Z,40.63
2023-01-25T12:34:47.588Z,37.55
2023-01-25T12:36:50.210Z,37.40
2023-01-25T12:39:03.710Z,40.47
2023-01-25T12:41:26.744Z,36.35
2023-01-25T12:43:47.807Z,41.42
2023-01-25T12:45:51.541Z,37.53
2023-01-25T12:48:00.322Z,42.85
2023-01-25T12:52:33.447Z,37.40
2023-01-25T12:54:41.064Z,37.63
2023-01-25T12:56:54.123Z,36.67
2023-01-25T12:59:16.923Z,39.25
2023-01-25T13:01:35.747Z,41.15
2023-01-25T13:03:43.128Z,39.03
2023-01-25T13:05:51.896Z,42.72
2023-01-25T13:10:03.883Z,37.65
2023-01-25T13:12:05.690Z,41.28
2023-01-25T13:14:16.384Z,39.50
2023-01-25T13:16:30.038Z,39.75
2023-01-25T13:18:36.850Z,47.80
2023-01-25T13:20:41.475Z,44.30
2023-01-25T13:22:43.019Z,49.63
2023-01-25T13:25:02.952Z,52.65
2023-01-25T13:27:43.091Z,63.17
2023-01-25T13:29:49.146Z,59.63
2023-01-25T13:31:53.614Z,59.85
2023-01-25T13:33:55.255Z,61.40
2023-01-25T13:35:56.709Z,48.08
2023-01-25T13:38:02.893Z,49.42
2023-01-25T13:40:25.756Z,48.55
2023-01-25T13:42:32.228Z,48.55
2023-01-25T13:44:38.471Z,51.95
2023-01-25T13:46:40.000Z,54.65
2023-01-25T13:48:55.576Z,51.05
2023-01-25T13:51:04.487Z,52.83
2023-01-25T13:53:14.834Z,49.42
2023-01-25T13:55:19.577Z,56.40
2023-01-25T13:57:27.149Z,55.78
2023-01-25T13:59:28.977Z,63.50
2023-01-25T14:01:33.798Z,61.40
2023-01-25T14:03:35.217Z,70.78
2023-01-25T14:05:36.687Z,68.57
2023-01-25T14:07:38.258Z,66.75
2023-01-25T14:09:43.139Z,69.18
2023-01-25T14:11:54.667Z,66.25
2023-01-25T14:13:57.171Z,69.80
2023-01-25T14:16:00.755Z,68.10
2023-01-25T14:18:14.204Z,71.30
2023-01-25T14:20:20.296Z,68.78
2023-01-25T14:22:33.924Z,69.03
2023-01-25T14:24:35.403Z,65.78
2023-01-25T14:26:38.919Z,72.10
2023-01-25T14:28:51.281Z,68.03
2023-01-25T14:31:20.269Z,65.32
2023-01-25T14:33:26.272Z,64.15
2023-01-25T14:35:43.302Z,60.30
2023-01-25T14:37:51.303Z,63.13
2023-01-25T14:39:53.115Z,63.40
2023-01-25T14:42:01.378Z,60.40
2023-01-25T14:46:29.709Z,65.03
2023-01-25T14:48:40.408Z,66.60
2023-01-25T14:50:41.988Z,66.95
2023-01-25T14:52:43.496Z,64.03
2023-01-25T14:54:52.197Z,72.57
2023-01-25T14:56:57.586Z,68.78
2023-01-25T14:59:00.276Z,69.97
2023-01-25T15:01:03.236Z,73.72
2023-01-25T15:03:06.614Z,69.82
2023-01-25T15:05:20.220Z,67.68
2023-01-25T15:07:54.239Z,69.65
2023-01-25T15:10:31.592Z,69.22
2023-01-25T15:12:33.127Z,67.30
2023-01-25T15:14:47.991Z,66.65
2023-01-25T15:16:58.918Z,71.90
2023-01-25T15:19:00.494Z,69.90
2023-01-25T15:21:01.969Z,73.20
2023-01-25T15:23:23.032Z,67.32
2023-01-25T15:25:24.685Z,71.45
2023-01-25T15:27:26.255Z,64.03
2023-01-25T15:29:27.809Z,62.55
2023-01-25T15:31:34.770Z,62.17
2023-01-25T15:33:36.364Z,60.03
2023-01-25T15:35:37.828Z,58.75
2023-01-25T15:37:39.430Z,60.97
2023-01-25T15:39:40.889Z,55.67
2023-01-25T15:41:42.777Z,54.78
2023-01-25T15:43:45.085Z,58.20
2023-01-25T15:45:49.428Z,55.78
2023-01-25T15:47:50.913Z,51.35
2023-01-25T15:49:53.782Z,58.17
2023-01-25T15:51:56.120Z,50.25
2023-01-25T15:53:57.579Z,53.20
2023-01-25T15:56:03.294Z,54.35
2023-01-25T15:58:05.158Z,55.28
2023-01-25T16:00:14.401Z,58.47
2023-01-25T16:02:15.881Z,56.10
2023-01-25T16:04:17.643Z,52.67
2023-01-25T16:06:28.721Z,56.63
2023-01-25T16:08:30.333Z,50.65
2023-01-25T16:10:33.322Z,49.17
2023-01-25T16:12:36.420Z,53.10
2023-01-25T16:14:37.910Z,50.00
2023-01-25T16:16:44.624Z,50.85
2023-01-25T16:18:46.767Z,49.53
2023-01-25T16:20:49.187Z,51.20
2023-01-25T16:22:50.755Z,53.38
2023-01-25T16:24:52.362Z,50.67
2023-01-25T16:26:56.201Z,51.15
2023-01-25T16:28:57.683Z,54.20
2023-01-25T16:30:59.469Z,58.80
2023-01-25T16:33:01.508Z,50.58
2023-01-25T16:35:03.045Z,55.38
2023-01-25T16:37:05.111Z,55.58
2023-01-25T16:39:19.887Z,54.90
2023-01-25T16:41:21.463Z,57.95
2023-01-25T16:43:25.182Z,59.42
2023-01-25T16:45:28.531Z,59.03
2023-01-25T16:47:30.007Z,53.38
2023-01-25T16:49:32.250Z,55.38
2023-01-25T16:51:33.790Z,53.58
2023-01-25T16:53:35.430Z,57.25
2023-01-25T16:55:37.346Z,54.47
2023-01-25T16:57:40.850Z,55.42
2023-01-25T16:59:42.300Z,58.13
2023-01-25T17:01:44.641Z,56.88
2023-01-25T17:03:47.312Z,56.80
2023-01-25T17:05:48.768Z,59.63
2023-01-25T17:07:51.437Z,59.72
2023-01-25T17:09:52.944Z,57.70
2023-01-25T17:11:54.671Z,62.55
2023-01-25T17:13:58.710Z,62.30
2023-01-25T17:16:01.046Z,55.00
2023-01-25T17:18:02.583Z,53.78
2023-01-25T17:20:04.910Z,54.47
2023-01-25T17:22:06.587Z,53.72
2023-01-25T17:24:08.460Z,51.17
2023-01-25T17:26:12.964Z,52.15
2023-01-25T17:28:14.490Z,51.33
2023-01-25T17:30:16.163Z,51.55
2023-01-25T17:32:17.761Z,50.70
2023-01-25T17:34:19.865Z,48.70
2023-01-25T17:36:22.073Z,49.30
2023-01-25T17:38:24.947Z,53.50
2023-01-25T17:40:26.492Z,49.15
2023-01-25T17:42:27.944Z,54.00
2023-01-25T17:44:29.726Z,51.25
2023-01-25T17:46:35.086Z,50.80
2023-01-25T17:48:36.606Z,57.30
2023-01-25T17:50:39.009Z,51.47
2023-01-25T17:52:40.552Z,50.90
2023-01-25T17:54:42.014Z,50.45
2023-01-25T17:56:43.524Z,49.47
2023-01-25T17:58:45.351Z,50.53
2023-01-25T18:00:46.931Z,46.85
2023-01-25T18:02:48.565Z,49.33
2023-01-25T18:04:50.124Z,44.05
2023-01-25T18:06:57.810Z,46.75
2023-01-25T18:09:01.702Z,47.10
2023-01-25T18:11:06.227Z,47.15
2023-01-25T18:13:07.771Z,48.55
2023-01-25T18:15:10.062Z,44.40
2023-01-25T18:17:12.508Z,45.78
2023-01-25T18:19:14.071Z,46.50
2023-01-25T18:21:22.126Z,57.13
2023-01-25T18:23:23.631Z,48.97
2023-01-25T18:25:34.649Z,48.22
2023-01-25T18:27:36.260Z,53.38
2023-01-25T18:29:56.005Z,49.53
2023-01-25T18:31:57.710Z,52.63
2023-01-25T18:33:59.473Z,50.03
2023-01-25T18:36:03.810Z,52.97
2023-01-25T18:38:05.411Z,48.92
2023-01-25T18:40:07.713Z,53.25
2023-01-25T18:42:09.240Z,54.28
2023-01-25T18:44:11.343Z,51.25
2023-01-25T18:46:13.088Z,53.80
2023-01-25T18:48:16.595Z,53.17
2023-01-25T18:50:18.996Z,53.38
2023-01-25T18:52:22.710Z,53.13
2023-01-25T18:54:24.264Z,51.22
2023-01-25T18:56:27.310Z,55.38
2023-01-25T18:58:33.197Z,51.55
2023-01-25T19:00:35.438Z,55.90
2023-01-25T19:02:37.991Z,50.17
2023-01-25T19:04:40.620Z,51.08
2023-01-25T19:06:42.102Z,54.47
2023-01-25T19:08:46.474Z,53.55
2023-01-25T19:10:47.974Z,51.40
2023-01-25T19:12:49.536Z,61.53
2023-01-25T19:14:51.347Z,58.20
2023-01-25T19:16:52.926Z,56.25
2023-01-25T19:18:55.194Z,57.47
2023-01-25T19:20:56.649Z,54.92
2023-01-25T19:22:58.111Z,56.22
2023-01-25T19:24:59.612Z,55.65
2023-01-25T19:27:01.432Z,58.80
2023-01-25T19:29:03.017Z,58.47
2023-01-25T19:31:24.777Z,60.03
2023-01-25T19:33:26.348Z,61.28
2023-01-25T19:35:27.873Z,62.35
2023-01-25T19:37:29.349Z,61.65
2023-01-25T19:39:30.846Z,58.08
2023-01-25T19:41:33.414Z,60.65
2023-01-25T19:43:35.502Z,63.10
2023-01-25T19:45:36.968Z,59.35
2023-01-25T19:47:38.439Z,67.32
2023-01-25T19:49:39.903Z,62.88
2023-01-25T19:51:45.534Z,60.17
2023-01-25T19:53:53.000Z,60.90
2023-01-25T19:55:54.473Z,60.40
2023-01-25T19:57:56.031Z,65.70
2023-01-25T19:59:57.495Z,61.42
2023-01-25T20:01:59.084Z,63.13
2023-01-25T20:04:02.227Z,57.08
2023-01-25T20:06:06.940Z,67.35
2023-01-25T20:08:08.580Z,61.70
2023-01-25T20:10:11.061Z,60.10
2023-01-25T20:12:12.587Z,55.42
2023-01-25T20:14:14.436Z,55.22
2023-01-25T20:16:17.235Z,60.55
2023-01-25T20:18:19.005Z,55.88
2023-01-25T20:20:20.486Z,55.03
2023-01-25T20:22:22.034Z,57.63
2023-01-25T20:24:23.697Z,55.35
2023-01-25T20:26:32.430Z,58.15
2023-01-25T20:28:36.058Z,60.88
2023-01-25T20:30:37.680Z,55.72
2023-01-25T20:32:39.232Z,59.67
2023-01-25T20:34:41.587Z,61.05
2023-01-25T20:36:43.365Z,63.80
2023-01-25T20:38:45.532Z,62.08
2023-01-25T20:40:47.065Z,60.67
2023-01-25T20:42:48.525Z,59.70
2023-01-25T20:44:49.973Z,59.17
2023-01-25T20:46:52.120Z,58.10
2023-01-25T20:48:54.115Z,63.25
2023-01-25T20:51:05.697Z,57.25
2023-01-25T20:53:07.148Z,61.28
2023-01-25T20:55:09.782Z,64.82
2023-01-25T20:57:11.437Z,59.58
2023-01-25T20:59:12.960Z,58.38
2023-01-25T21:01:16.047Z,64.72
2023-01-25T21:03:17.695Z,63.75
2023-01-25T21:05:19.221Z,57.47
2023-01-25T21:07:20.754Z,53.28
2023-01-25T21:09:23.262Z,60.10
2023-01-25T21:11:25.911Z,57.42
2023-01-25T21:13:28.604Z,60.13
2023-01-25T21:15:30.047Z,62.78
2023-01-25T21:17:31.548Z,65.35
2023-01-25T21:19:33.070Z,61.42
2023-01-25T21:21:34.874Z,64.30
2023-01-25T21:23:38.986Z,66.75
2023-01-25T21:25:40.456Z,60.53
2023-01-25T21:27:41.921Z,63.58
2023-01-25T21:29:43.377Z,60.95
2023-01-25T21:31:44.881Z,60.30
2023-01-25T21:33:47.597Z,63.85
2023-01-25T21:35:54.284Z,61.30
2023-01-25T21:37:55.892Z,63.40
2023-01-25T21:39:57.376Z,61.75
2023-01-25T21:41:58.829Z,61.20
2023-01-25T21:44:19.765Z,61.10
2023-01-25T21:46:26.010Z,62.63
2023-01-25T21:48:46.112Z,59.63
2023-01-25T21:51:06.032Z,60.00
2023-01-25T21:53:09.112Z,59.22
2023-01-25T21:55:10.735Z,67.43
2023-01-25T21:57:12.243Z,62.08
2023-01-25T21:59:15.345Z,61.55
2023-01-25T22:01:20.020Z,62.17
2023-01-25T22:03:21.507Z,65.80
2023-01-25T22:05:22.973Z,66.55
2023-01-25T22:07:24.483Z,68.55
2023-01-25T22:09:25.949Z,68.63
2023-01-25T22:11:27.873Z,69.05
2023-01-25T22:13:31.069Z,66.43
2023-01-25T22:15:33.796Z,65.97
2023-01-25T22:17:35.343Z,71.15
2023-01-25T22:19:36.785Z,66.70
2023-01-25T22:21:38.257Z,70.72
2023-01-25T22:23:39.766Z,72.15
2023-01-25T22:25:41.332Z,65.45
2023-01-25T22:27:59.937Z,67.47
2023-01-25T22:32:02.875Z,65.30
2023-01-25T22:34:04.710Z,67.40
2023-01-25T22:36:06.699Z,63.35
2023-01-25T22:38:08.151Z,66.53
2023-01-25T22:40:10.468Z,81.57
2023-01-25T22:42:12.057Z,69.13
2023-01-25T22:44:14.690Z,79.00
2023-01-25T22:46:21.246Z,64.63
2023-01-25T22:48:22.777Z,68.43
2023-01-25T22:50:24.231Z,90.10
2023-01-25T22:52:25.788Z,82.18
2023-01-25T22:54:27.250Z,75.18
2023-01-25T22:56:34.136Z,68.28
2023-01-25T22:58:37.034Z,64.28
2023-01-25T23:00:38.592Z,65.90
2023-01-25T23:02:40.037Z,65.32
2023-01-25T23:04:41.602Z,62.53
2023-01-25T23:06:43.139Z,66.35
2023-01-25T23:08:44.954Z,57.97
2023-01-25T23:10:46.512Z,60.85
2023-01-25T23:12:48.155Z,63.28
2023-01-25T23:14:55.166Z,63.40
2023-01-25T23:17:17.115Z,64.28
2023-01-25T23:19:18.728Z,62.80
2023-01-25T23:21:22.355Z,62.13
2023-01-25T23:23:23.882Z,66.20
2023-01-25T23:25:25.440Z,62.78
2023-01-25T23:27:27.084Z,64.82
2023-01-25T23:29:28.576Z,63.60
2023-01-25T23:31:30.818Z,61.63
2023-01-25T23:33:32.341Z,63.30
2023-01-25T23:35:33.802Z,64.43
2023-01-25T23:37:35.259Z,57.60
2023-01-25T23:39:37.064Z,62.55
2023-01-25T23:41:38.575Z,67.32
2023-01-25T23:43:40.341Z,61.80
2023-01-25T23:45:43.832Z,64.05
2023-01-25T23:47:45.273Z,63.03
2023-01-25T23:49:46.736Z,67.00
2023-01-25T23:51:48.217Z,58.40
2023-01-25T23:53:49.682Z,65.82
2023-01-25T23:55:58.677Z,60.65
2023-01-25T23:58:00.160Z,58.25
